createdAt,value
2022-10-04T00:01:58.311Z,14.37
2022-10-04T00:04:26.433Z,14.53
2022-10-04T00:07:13.713Z,14.35
2022-10-04T00:09:48.288Z,14.56
2022-10-04T00:12:25.363Z,14.75
2022-10-04T00:14:54.009Z,14.80
2022-10-04T00:17:31.575Z,14.85
2022-10-04T00:19:59.123Z,14.74
2022-10-04T00:22:30.876Z,14.48
2022-10-04T00:25:09.906Z,14.80
2022-10-04T00:27:38.247Z,14.59
2022-10-04T00:30:04.883Z,14.65
2022-10-04T00:32:47.181Z,14.53
2022-10-04T00:35:26.078Z,14.16
2022-10-04T00:38:13.642Z,13.93
2022-10-04T00:40:49.856Z,14.13
2022-10-04T00:43:21.183Z,14.13
2022-10-04T00:45:53.456Z,14.17
2022-10-04T00:48:35.236Z,14.25
2022-10-04T00:51:07.548Z,14.30
2022-10-04T00:53:39.239Z,14.38
2022-10-04T00:56:16.361Z,14.27
2022-10-04T00:59:10.115Z,14.25
2022-10-04T01:01:38.054Z,14.26
2022-10-04T01:04:07.537Z,14.38
2022-10-04T01:06:35.158Z,14.37
2022-10-04T01:09:07.422Z,14.35
2022-10-04T01:11:45.138Z,14.36
2022-10-04T01:14:19.830Z,14.32
2022-10-04T01:16:46.655Z,14.35
2022-10-04T01:19:33.952Z,14.27
2022-10-04T01:22:37.147Z,14.17
2022-10-04T01:25:04.357Z,14.15
2022-10-04T01:27:40.715Z,14.20
2022-10-04T01:30:11.304Z,14.22
2022-10-04T01:32:39.092Z,14.30
2022-10-04T01:35:08.744Z,14.25
2022-10-04T01:37:39.438Z,14.31
2022-10-04T01:40:09.135Z,14.26
2022-10-04T01:42:41.814Z,14.26
2022-10-04T01:45:17.713Z,14.19
2022-10-04T01:47:50.246Z,14.31
2022-10-04T01:50:22.104Z,14.17
2022-10-04T01:52:51.960Z,14.24
2022-10-04T01:55:30.874Z,14.29
2022-10-04T01:58:10.931Z,14.26
2022-10-04T02:00:43.881Z,14.22
2022-10-04T02:03:19.397Z,14.20
2022-10-04T02:05:54.768Z,14.13
2022-10-04T02:08:30.579Z,14.22
2022-10-04T02:10:57.868Z,14.10
2022-10-04T02:13:29.579Z,13.91
2022-10-04T02:15:56.881Z,13.94
2022-10-04T02:18:24.296Z,14.07
2022-10-04T02:20:51.424Z,14.07
2022-10-04T02:23:19.624Z,13.94
2022-10-04T02:25:46.426Z,14.07
2022-10-04T02:28:15.369Z,14.18
2022-10-04T02:31:09.043Z,14.15
2022-10-04T02:33:44.004Z,14.10
2022-10-04T02:36:10.975Z,14.14
2022-10-04T02:38:46.913Z,14.15
2022-10-04T02:41:56.540Z,13.92
2022-10-04T02:44:30.123Z,14.02
2022-10-04T02:47:20.715Z,14.08
2022-10-04T02:49:56.147Z,14.06
2022-10-04T02:52:28.194Z,13.79
2022-10-04T02:55:04.020Z,13.78
2022-10-04T02:57:32.764Z,13.61
2022-10-04T03:00:24.759Z,13.78
2022-10-04T03:03:29.460Z,13.74
2022-10-04T03:06:05.724Z,13.81
2022-10-04T03:08:37.031Z,13.80
2022-10-04T03:11:04.965Z,13.70
2022-10-04T03:13:31.951Z,13.61
2022-10-04T03:15:58.745Z,13.66
2022-10-04T03:18:25.560Z,13.78
2022-10-04T03:20:52.509Z,13.78
2022-10-04T03:23:20.206Z,13.62
2022-10-04T03:26:24.503Z,13.64
2022-10-04T03:28:52.917Z,13.52
2022-10-04T03:31:20.141Z,13.65
2022-10-04T03:33:47.416Z,13.62
2022-10-04T03:36:19.402Z,13.45
2022-10-04T03:38:47.351Z,13.40
2022-10-04T03:41:14.855Z,13.45
2022-10-04T03:43:46.710Z,13.51
2022-10-04T03:46:14.554Z,13.57
2022-10-04T03:48:44.931Z,13.62
2022-10-04T03:51:17.810Z,13.69
2022-10-04T03:53:46.264Z,13.61
2022-10-04T03:56:20.974Z,13.55
2022-10-04T03:58:49.654Z,13.69
2022-10-04T04:01:39.330Z,13.75
2022-10-04T04:04:24.678Z,13.55
2022-10-04T04:07:03.237Z,13.49
2022-10-04T04:09:39.317Z,13.51
2022-10-04T04:12:11.609Z,13.65
2022-10-04T04:14:40.356Z,13.65
2022-10-04T04:17:25.688Z,13.77
2022-10-04T04:19:54.404Z,13.51
2022-10-04T04:22:21.522Z,13.41
2022-10-04T04:24:49.720Z,13.33
2022-10-04T04:27:17.665Z,13.45
2022-10-04T04:29:52.945Z,13.36
2022-10-04T04:32:24.278Z,13.38
2022-10-04T04:34:53.649Z,13.40
2022-10-04T04:37:20.601Z,13.44
2022-10-04T04:39:52.231Z,13.41
2022-10-04T04:42:31.985Z,13.48
2022-10-04T04:45:15.577Z,13.55
2022-10-04T04:47:44.907Z,13.33
2022-10-04T04:50:32.993Z,13.21
2022-10-04T04:53:18.934Z,13.16
2022-10-04T04:56:03.278Z,13.29
2022-10-04T04:58:35.367Z,13.25
2022-10-04T05:01:10.389Z,13.27
2022-10-04T05:03:37.123Z,13.13
2022-10-04T05:06:05.014Z,13.28
2022-10-04T05:08:38.604Z,13.28
2022-10-04T05:11:08.318Z,13.28
2022-10-04T05:13:39.010Z,13.20
2022-10-04T05:16:13.873Z,13.31
2022-10-04T05:18:40.625Z,13.08
2022-10-04T05:21:13.848Z,13.12
2022-10-04T05:23:40.747Z,13.13
2022-10-04T05:26:11.777Z,13.09
2022-10-04T05:28:38.923Z,12.92
2022-10-04T05:31:44.161Z,12.96
2022-10-04T05:34:29.371Z,13.15
2022-10-04T05:36:59.077Z,12.93
2022-10-04T05:39:51.699Z,12.85
2022-10-04T05:42:21.285Z,12.99
2022-10-04T05:44:53.284Z,13.01
2022-10-04T05:47:24.264Z,13.26
2022-10-04T05:49:54.160Z,13.18
2022-10-04T05:52:38.547Z,13.30
2022-10-04T05:55:41.658Z,13.23
2022-10-04T05:58:30.475Z,13.39
2022-10-04T06:01:10.634Z,13.65
2022-10-04T06:03:40.410Z,13.63
2022-10-04T06:06:13.088Z,13.53
2022-10-04T06:08:56.672Z,13.50
2022-10-04T06:11:50.153Z,13.56
2022-10-04T06:15:02.366Z,13.58
2022-10-04T06:17:29.339Z,13.56
2022-10-04T06:20:07.954Z,13.65
2022-10-04T06:22:34.614Z,13.77
2022-10-04T06:25:06.307Z,14.03
2022-10-04T06:27:41.929Z,13.79
2022-10-04T06:30:20.709Z,13.85
2022-10-04T06:32:55.734Z,13.71
2022-10-04T06:36:07.773Z,13.68
2022-10-04T06:39:19.789Z,13.99
2022-10-04T06:42:34.753Z,13.92
2022-10-04T06:45:17.801Z,13.75
2022-10-04T06:48:00.986Z,13.68
2022-10-04T06:50:36.834Z,13.54
2022-10-04T06:53:09.498Z,13.77
2022-10-04T06:55:48.247Z,13.83
2022-10-04T06:58:17.565Z,13.74
2022-10-04T07:01:06.781Z,13.76
2022-10-04T07:03:39.449Z,13.87
2022-10-04T07:06:07.660Z,13.92
2022-10-04T07:08:47.984Z,13.75
2022-10-04T07:11:22.875Z,13.75
2022-10-04T07:13:53.575Z,13.77
2022-10-04T07:16:32.439Z,13.74
2022-10-04T07:19:17.745Z,13.77
2022-10-04T07:22:05.734Z,13.63
2022-10-04T07:24:47.851Z,13.24
2022-10-04T07:27:28.607Z,13.19
2022-10-04T07:29:56.695Z,13.40
2022-10-04T07:32:26.207Z,14.41
2022-10-04T07:34:57.754Z,17.52
2022-10-04T07:37:27.434Z,20.40
2022-10-04T07:40:19.228Z,22.01
2022-10-04T07:42:49.377Z,22.79
2022-10-04T07:45:21.616Z,23.68
2022-10-04T07:47:48.418Z,23.80
2022-10-04T07:50:32.082Z,23.21
2022-10-04T07:53:22.060Z,23.38
2022-10-04T07:56:21.682Z,22.52
2022-10-04T07:59:17.545Z,22.50
2022-10-04T08:01:48.991Z,22.71
2022-10-04T08:04:29.675Z,21.98
2022-10-04T08:07:03.846Z,21.82
2022-10-04T08:09:51.437Z,20.45
2022-10-04T08:12:26.234Z,19.74
2022-10-04T08:15:09.341Z,18.44
2022-10-04T08:17:45.482Z,17.72
2022-10-04T08:20:12.142Z,17.82
2022-10-04T08:22:53.134Z,17.85
2022-10-04T08:25:28.977Z,17.47
2022-10-04T08:28:26.637Z,17.16
2022-10-04T08:31:09.355Z,17.22
2022-10-04T08:33:49.397Z,17.14
2022-10-04T08:36:37.956Z,17.06
2022-10-04T08:39:06.970Z,17.04
2022-10-04T08:42:08.610Z,17.16
2022-10-04T08:45:13.398Z,17.47
2022-10-04T08:48:01.815Z,17.07
2022-10-04T08:51:00.172Z,17.28
2022-10-04T08:53:44.582Z,17.23
2022-10-04T08:56:33.256Z,17.32
2022-10-04T08:59:21.410Z,17.35
2022-10-04T09:02:11.242Z,17.43
2022-10-04T09:05:11.616Z,17.19
2022-10-04T09:08:15.905Z,17.42
2022-10-04T09:10:55.542Z,17.49
2022-10-04T09:13:48.841Z,17.37
2022-10-04T09:16:29.130Z,17.22
2022-10-04T09:19:21.023Z,17.38
2022-10-04T09:21:47.866Z,17.53
2022-10-04T09:24:31.486Z,17.38
2022-10-04T09:27:07.151Z,17.28
2022-10-04T09:29:46.537Z,17.59
2022-10-04T09:32:22.153Z,17.87
2022-10-04T09:35:24.366Z,17.84
2022-10-04T09:38:06.712Z,17.68
2022-10-04T09:40:51.975Z,18.00
2022-10-04T09:43:27.487Z,18.12
2022-10-04T09:46:03.125Z,18.00
2022-10-04T09:48:37.563Z,17.85
2022-10-04T09:51:17.340Z,17.86
2022-10-04T09:53:54.904Z,18.11
2022-10-04T09:56:44.155Z,18.17
2022-10-04T09:59:23.539Z,17.91
2022-10-04T10:02:13.243Z,18.14
2022-10-04T10:05:04.659Z,18.25
2022-10-04T10:07:34.102Z,18.30
2022-10-04T10:10:22.206Z,17.94
2022-10-04T10:13:32.260Z,18.79
2022-10-04T10:16:08.590Z,18.14
2022-10-04T10:18:44.248Z,18.11
2022-10-04T10:21:17.972Z,18.30
2022-10-04T10:24:00.699Z,18.60
2022-10-04T10:26:46.043Z,18.58
2022-10-04T10:29:31.625Z,18.35
2022-10-04T10:32:09.754Z,18.60
2022-10-04T10:35:03.161Z,18.79
2022-10-04T10:37:38.240Z,18.42
2022-10-04T10:40:28.799Z,18.61
2022-10-04T10:43:18.582Z,18.82
2022-10-04T10:46:19.178Z,18.93
2022-10-04T10:49:12.043Z,19.00
2022-10-04T10:52:12.715Z,18.56
2022-10-04T10:55:00.333Z,18.75
2022-10-04T10:57:38.426Z,19.13
2022-10-04T11:00:22.977Z,19.07
2022-10-04T11:03:22.746Z,18.98
2022-10-04T11:06:01.563Z,19.00
2022-10-04T11:08:50.102Z,18.95
2022-10-04T11:11:56.167Z,19.00
2022-10-04T11:14:46.962Z,18.88
2022-10-04T11:17:42.589Z,19.34
2022-10-04T11:20:15.625Z,19.15
2022-10-04T11:23:03.987Z,19.04
2022-10-04T11:25:58.250Z,18.97
2022-10-04T11:28:57.530Z,19.03
2022-10-04T11:31:34.175Z,19.29
2022-10-04T11:34:25.464Z,19.14
2022-10-04T11:37:02.033Z,19.06
2022-10-04T11:39:44.898Z,19.12
2022-10-04T11:42:36.102Z,19.27
2022-10-04T11:45:34.014Z,19.22
2022-10-04T11:48:27.230Z,19.23
2022-10-04T11:51:18.921Z,19.44
2022-10-04T11:54:27.606Z,19.29
2022-10-04T11:57:27.256Z,19.69
2022-10-04T12:00:04.973Z,19.64
2022-10-04T12:02:49.164Z,19.38
2022-10-04T12:05:41.153Z,19.66
2022-10-04T12:08:23.325Z,19.73
2022-10-04T12:11:04.116Z,19.70
2022-10-04T12:13:56.832Z,19.70
2022-10-04T12:16:29.939Z,19.82
2022-10-04T12:19:21.132Z,19.71
2022-10-04T12:21:52.400Z,19.56
2022-10-04T12:24:37.452Z,19.79
2022-10-04T12:27:07.250Z,19.77
2022-10-04T12:30:07.976Z,19.66
2022-10-04T12:32:39.887Z,19.48
2022-10-04T12:35:38.051Z,19.69
2022-10-04T12:38:23.804Z,19.97
2022-10-04T12:41:02.212Z,19.54
2022-10-04T12:43:49.566Z,19.51
2022-10-04T12:46:44.920Z,19.65
2022-10-04T12:49:27.640Z,19.77
2022-10-04T12:52:16.965Z,19.76
2022-10-04T12:55:17.988Z,19.90
2022-10-04T12:57:56.155Z,19.93
2022-10-04T13:00:25.203Z,19.82
2022-10-04T13:03:25.739Z,19.70
2022-10-04T13:06:20.722Z,19.57
2022-10-04T13:08:59.633Z,19.61
2022-10-04T13:11:43.913Z,19.88
2022-10-04T13:14:39.868Z,20.19
2022-10-04T13:17:34.507Z,20.07
2022-10-04T13:20:18.920Z,20.21
2022-10-04T13:22:57.589Z,19.84
2022-10-04T13:25:47.938Z,20.19
2022-10-04T13:28:25.794Z,19.93
2022-10-04T13:31:14.912Z,19.79
2022-10-04T13:34:06.051Z,20.00
2022-10-04T13:36:57.450Z,20.21
2022-10-04T13:39:48.605Z,20.38
2022-10-04T13:42:41.819Z,20.40
2022-10-04T13:45:26.397Z,19.93
2022-10-04T13:48:14.441Z,20.26
2022-10-04T13:51:02.922Z,20.01
2022-10-04T13:54:39.232Z,20.24
2022-10-04T13:57:54.793Z,20.38
2022-10-04T14:00:43.182Z,19.98
2022-10-04T14:03:29.933Z,20.10
2022-10-04T14:06:24.206Z,19.95
2022-10-04T14:08:54.768Z,19.88
2022-10-04T14:11:22.310Z,20.16
2022-10-04T14:14:21.780Z,20.09
2022-10-04T14:17:14.367Z,19.99
2022-10-04T14:19:46.709Z,20.15
2022-10-04T14:22:47.757Z,20.09
2022-10-04T14:25:52.111Z,20.06
2022-10-04T14:28:27.933Z,20.41
2022-10-04T14:31:30.255Z,20.08
2022-10-04T14:34:43.659Z,20.17
2022-10-04T14:37:26.765Z,20.24
2022-10-04T14:40:15.691Z,20.30
2022-10-04T14:42:54.881Z,20.48
2022-10-04T14:45:50.748Z,20.22
2022-10-04T14:48:36.224Z,20.45
2022-10-04T14:51:34.431Z,20.07
2022-10-04T14:54:19.551Z,20.12
2022-10-04T14:57:25.340Z,20.13
2022-10-04T15:00:06.902Z,20.00
2022-10-04T15:02:33.647Z,20.00
2022-10-04T15:05:08.388Z,19.90
2022-10-04T15:07:47.069Z,20.27
2022-10-04T15:10:20.523Z,20.07
2022-10-04T15:13:10.372Z,19.99
2022-10-04T15:15:52.745Z,19.98
2022-10-04T15:18:31.941Z,20.02
2022-10-04T15:21:03.273Z,20.02
2022-10-04T15:23:41.266Z,20.23
2022-10-04T15:26:20.218Z,20.30
2022-10-04T15:28:50.126Z,20.47
2022-10-04T15:31:28.702Z,20.43
2022-10-04T15:33:55.448Z,20.43
2022-10-04T15:37:01.790Z,20.35
2022-10-04T15:39:39.664Z,20.11
2022-10-04T15:42:24.933Z,20.21
2022-10-04T15:45:16.079Z,20.01
2022-10-04T15:48:33.072Z,20.20
2022-10-04T15:51:19.142Z,20.50
2022-10-04T15:54:15.028Z,20.24
2022-10-04T15:56:45.544Z,20.11
2022-10-04T15:59:53.545Z,20.15
2022-10-04T16:03:03.129Z,20.00
2022-10-04T16:05:39.391Z,20.08
2022-10-04T16:08:20.854Z,20.22
2022-10-04T16:11:22.206Z,20.10
2022-10-04T16:13:52.346Z,20.27
2022-10-04T16:16:20.512Z,20.05
2022-10-04T16:19:10.062Z,20.11
2022-10-04T16:22:09.720Z,20.09
2022-10-04T16:24:45.580Z,20.06
2022-10-04T16:27:46.131Z,19.79
2022-10-04T16:30:27.451Z,20.01
2022-10-04T16:33:33.352Z,20.01
2022-10-04T16:36:06.566Z,19.99
2022-10-04T16:39:04.230Z,20.03
2022-10-04T16:41:45.390Z,20.16
2022-10-04T16:44:38.115Z,20.15
2022-10-04T16:48:00.436Z,19.96
2022-10-04T16:51:04.767Z,20.02
2022-10-04T16:54:09.200Z,19.77
2022-10-04T16:56:56.718Z,19.63
2022-10-04T16:59:39.084Z,19.51
2022-10-04T17:02:41.934Z,19.47
2022-10-04T17:05:32.923Z,19.11
2022-10-04T17:08:15.098Z,19.27
2022-10-04T17:11:14.552Z,19.48
2022-10-04T17:13:56.998Z,19.08
2022-10-04T17:17:04.794Z,19.37
2022-10-04T17:19:45.601Z,19.17
2022-10-04T17:22:21.554Z,19.28
2022-10-04T17:24:59.945Z,19.32
2022-10-04T17:27:45.196Z,19.29
2022-10-04T17:30:25.446Z,19.26
2022-10-04T17:32:58.960Z,19.22
2022-10-04T17:35:35.037Z,19.19
2022-10-04T17:38:27.755Z,19.02
2022-10-04T17:41:14.439Z,18.95
2022-10-04T17:44:03.498Z,18.80
2022-10-04T17:46:38.083Z,18.85
2022-10-04T17:49:36.408Z,18.56
2022-10-04T17:52:23.797Z,18.23
2022-10-04T17:55:16.824Z,18.37
2022-10-04T17:57:48.177Z,18.46
2022-10-04T18:00:20.908Z,18.29
2022-10-04T18:02:50.815Z,18.44
2022-10-04T18:05:36.456Z,18.28
2022-10-04T18:08:09.534Z,18.41
2022-10-04T18:10:57.940Z,18.17
2022-10-04T18:13:27.598Z,18.42
2022-10-04T18:15:57.255Z,18.39
2022-10-04T18:18:27.968Z,18.57
2022-10-04T18:20:54.699Z,18.63
2022-10-04T18:23:28.356Z,18.54
2022-10-04T18:25:58.631Z,18.36
2022-10-04T18:28:25.828Z,18.56
2022-10-04T18:30:52.555Z,18.21
2022-10-04T18:33:26.117Z,18.36
2022-10-04T18:36:08.683Z,18.39
2022-10-04T18:38:35.699Z,17.98
2022-10-04T18:41:05.317Z,18.19
2022-10-04T18:43:40.836Z,18.15
2022-10-04T18:46:13.587Z,18.21
2022-10-04T18:48:55.885Z,18.20
2022-10-04T18:51:22.675Z,18.39
2022-10-04T18:54:14.174Z,18.20
2022-10-04T18:56:55.704Z,17.87
2022-10-04T18:59:53.203Z,18.19
2022-10-04T19:02:34.855Z,17.99
2022-10-04T19:05:11.318Z,18.10
2022-10-04T19:07:44.216Z,18.05
2022-10-04T19:10:13.593Z,18.07
2022-10-04T19:12:58.737Z,17.99
2022-10-04T19:15:37.649Z,18.08
2022-10-04T19:18:24.417Z,18.09
2022-10-04T19:21:03.155Z,18.07
2022-10-04T19:23:32.833Z,18.08
2022-10-04T19:26:31.161Z,18.17
2022-10-04T19:29:21.175Z,18.17
2022-10-04T19:32:17.942Z,18.23
2022-10-04T19:35:00.811Z,18.30
2022-10-04T19:37:58.104Z,18.18
2022-10-04T19:40:53.817Z,18.28
2022-10-04T19:43:31.993Z,18.34
2022-10-04T19:46:07.810Z,18.32
2022-10-04T19:48:41.607Z,18.20
2022-10-04T19:51:31.235Z,18.31
2022-10-04T19:54:04.958Z,18.26
2022-10-04T19:56:36.009Z,18.27
2022-10-04T19:59:03.061Z,18.17
2022-10-04T20:01:29.974Z,18.08
2022-10-04T20:04:15.203Z,18.24
2022-10-04T20:06:50.135Z,18.41
2022-10-04T20:09:32.149Z,18.33
2022-10-04T20:12:00.062Z,18.34
2022-10-04T20:14:26.602Z,18.17
2022-10-04T20:16:53.599Z,18.36
2022-10-04T20:19:43.250Z,18.29
2022-10-04T20:22:12.777Z,18.42
2022-10-04T20:24:39.570Z,18.54
2022-10-04T20:27:09.339Z,18.31
2022-10-04T20:29:39.063Z,18.50
2022-10-04T20:32:10.346Z,18.20
2022-10-04T20:34:37.008Z,17.88
2022-10-04T20:37:08.479Z,18.34
2022-10-04T20:39:41.150Z,18.32
2022-10-04T20:42:29.810Z,18.38
2022-10-04T20:44:59.035Z,18.21
2022-10-04T20:47:40.184Z,18.32
2022-10-04T20:50:10.141Z,18.20
2022-10-04T20:52:41.392Z,18.07
2022-10-04T20:55:17.699Z,18.31
2022-10-04T20:57:46.990Z,17.76
2022-10-04T21:00:21.559Z,18.12
2022-10-04T21:02:48.530Z,18.18
2022-10-04T21:05:23.550Z,18.27
2022-10-04T21:08:28.123Z,18.09
2022-10-04T21:11:14.316Z,18.13
2022-10-04T21:13:48.754Z,18.26
2022-10-04T21:16:38.874Z,18.02
2022-10-04T21:19:33.667Z,18.11
2022-10-04T21:22:02.833Z,18.27
2022-10-04T21:24:38.613Z,18.27
2022-10-04T21:27:08.660Z,17.98
2022-10-04T21:29:35.548Z,18.14
2022-10-04T21:32:02.463Z,18.05
2022-10-04T21:34:52.047Z,17.90
2022-10-04T21:37:16.417Z,17.71
2022-10-04T21:39:43.542Z,17.80
2022-10-04T21:42:10.664Z,18.16
2022-10-04T21:44:37.513Z,18.21
2022-10-04T21:47:04.385Z,18.40
2022-10-04T21:49:31.104Z,17.93
2022-10-04T21:51:58.746Z,18.14
2022-10-04T21:54:25.402Z,18.08
2022-10-04T21:56:53.938Z,18.12
2022-10-04T21:59:21.431Z,18.24
2022-10-04T22:01:48.189Z,18.38
2022-10-04T22:04:18.074Z,18.20
2022-10-04T22:06:45.156Z,18.31
2022-10-04T22:09:12.116Z,18.17
2022-10-04T22:11:38.798Z,18.37
2022-10-04T22:14:05.566Z,18.40
2022-10-04T22:16:32.349Z,17.98
2022-10-04T22:18:59.114Z,18.31
2022-10-04T22:21:25.913Z,18.13
2022-10-04T22:23:52.781Z,18.36
2022-10-04T22:26:21.285Z,18.21
2022-10-04T22:28:49.256Z,18.21
2022-10-04T22:31:27.109Z,18.26
2022-10-04T22:33:55.144Z,18.11
2022-10-04T22:36:24.196Z,18.25
2022-10-04T22:39:09.357Z,18.15
2022-10-04T22:41:53.029Z,18.37
2022-10-04T22:44:36.571Z,18.38
2022-10-04T22:47:04.677Z,18.27
2022-10-04T22:49:34.220Z,18.22
2022-10-04T22:52:03.545Z,18.12
2022-10-04T22:54:33.180Z,18.09
2022-10-04T22:57:00.325Z,17.99
2022-10-04T22:59:35.499Z,17.93
2022-10-04T23:02:09.166Z,18.12
2022-10-04T23:04:36.138Z,18.13
2022-10-04T23:07:02.797Z,18.10
2022-10-04T23:09:29.533Z,17.95
2022-10-04T23:11:56.346Z,17.97
2022-10-04T23:14:23.098Z,17.85
2022-10-04T23:16:50.339Z,18.20
2022-10-04T23:19:20.781Z,18.26
2022-10-04T23:21:49.770Z,18.03
2022-10-04T23:24:21.621Z,18.05
2022-10-04T23:26:56.398Z,17.84
2022-10-04T23:29:33.633Z,18.40
2022-10-04T23:32:10.156Z,17.75
2022-10-04T23:34:39.368Z,18.04
2022-10-04T23:37:22.232Z,18.26
2022-10-04T23:39:49.083Z,17.98
2022-10-04T23:42:21.176Z,17.84
2022-10-04T23:44:49.965Z,17.88
2022-10-04T23:47:19.313Z,18.00
2022-10-04T23:49:48.248Z,17.86
2022-10-04T23:52:36.347Z,18.07
2022-10-04T23:55:15.186Z,18.05
2022-10-04T23:57:41.937Z,17.98
